createdAt,value
2023-05-22T00:01:56.795Z,18.90
2023-05-22T00:04:29.991Z,18.80
2023-05-22T00:06:59.368Z,18.80
2023-05-22T00:09:27.800Z,18.70
2023-05-22T00:11:55.695Z,18.70
2023-05-22T00:14:23.780Z,18.70
2023-05-22T00:16:51.680Z,18.60
2023-05-22T00:19:23.195Z,18.60
2023-05-22T00:21:51.358Z,18.50
2023-05-22T00:24:20.773Z,18.50
2023-05-22T00:26:48.569Z,18.50
2023-05-22T00:29:16.487Z,18.40
2023-05-22T00:31:44.327Z,18.40
2023-05-22T00:34:12.256Z,18.40
2023-05-22T00:36:40.229Z,18.40
2023-05-22T00:39:08.067Z,18.30
2023-05-22T00:41:38.556Z,18.30
2023-05-22T00:44:07.901Z,18.30
2023-05-22T00:46:36.438Z,18.30
2023-05-22T00:49:11.627Z,18.30
2023-05-22T00:51:39.605Z,18.20
2023-05-22T00:54:07.762Z,18.20
2023-05-22T00:56:37.161Z,18.20
2023-05-22T00:59:05.272Z,18.20
2023-05-22T01:01:36.912Z,18.10
2023-05-22T01:04:07.983Z,18.10
2023-05-22T01:06:36.116Z,18.00
2023-05-22T01:09:05.029Z,18.00
2023-05-22T01:11:39.693Z,17.90
2023-05-22T01:14:15.614Z,17.90
2023-05-22T01:16:51.664Z,17.90
2023-05-22T01:19:51.260Z,17.80
2023-05-22T01:22:31.705Z,17.80
2023-05-22T01:25:17.624Z,17.80
2023-05-22T01:28:03.536Z,17.70
2023-05-22T01:30:49.184Z,17.70
2023-05-22T01:33:19.134Z,17.70
2023-05-22T01:35:51.947Z,17.60
2023-05-22T01:38:20.246Z,17.60
2023-05-22T01:40:49.384Z,17.60
2023-05-22T01:43:17.663Z,17.50
2023-05-22T01:45:47.201Z,17.50
2023-05-22T01:48:15.093Z,17.50
2023-05-22T01:50:45.243Z,17.50
2023-05-22T01:53:25.081Z,17.40
2023-05-22T01:55:58.929Z,17.40
2023-05-22T01:58:35.254Z,17.40
2023-05-22T02:01:05.352Z,17.40
2023-05-22T02:03:36.184Z,17.30
2023-05-22T02:06:07.743Z,17.30
2023-05-22T02:08:38.134Z,17.20
2023-05-22T02:11:07.774Z,17.30
2023-05-22T02:13:35.875Z,17.20
2023-05-22T02:16:06.331Z,17.20
2023-05-22T02:18:34.339Z,17.20
2023-05-22T02:21:03.209Z,17.10
2023-05-22T02:23:31.134Z,17.10
2023-05-22T02:25:59.019Z,17.10
2023-05-22T02:28:26.884Z,17.00
2023-05-22T02:30:54.856Z,17.00
2023-05-22T02:33:24.185Z,17.00
2023-05-22T02:35:52.146Z,16.90
2023-05-22T02:38:20.329Z,16.90
2023-05-22T02:40:49.715Z,16.90
2023-05-22T02:43:17.591Z,16.90
2023-05-22T02:45:45.558Z,16.80
2023-05-22T02:48:13.434Z,16.80
2023-05-22T02:50:44.122Z,16.80
2023-05-22T02:53:13.086Z,16.80
2023-05-22T02:55:41.703Z,16.70
2023-05-22T02:58:11.225Z,16.70
2023-05-22T03:00:39.312Z,16.70
2023-05-22T03:03:07.954Z,16.70
2023-05-22T03:05:36.596Z,16.70
2023-05-22T03:08:06.668Z,16.60
2023-05-22T03:10:34.533Z,16.60
2023-05-22T03:13:02.435Z,16.60
2023-05-22T03:15:30.641Z,16.60
2023-05-22T03:17:58.496Z,16.60
2023-05-22T03:20:26.417Z,16.50
2023-05-22T03:22:54.290Z,16.50
2023-05-22T03:25:23.711Z,16.50
2023-05-22T03:27:51.543Z,16.40
2023-05-22T03:30:19.446Z,16.40
2023-05-22T03:32:47.358Z,16.40
2023-05-22T03:35:19.461Z,16.40
2023-05-22T03:37:47.419Z,16.40
2023-05-22T03:40:15.603Z,16.30
2023-05-22T03:42:44.816Z,16.30
2023-05-22T03:45:12.912Z,16.30
2023-05-22T03:47:40.789Z,16.20
2023-05-22T03:50:09.217Z,16.20
2023-05-22T03:52:37.061Z,16.20
2023-05-22T03:55:05.568Z,16.20
2023-05-22T03:57:33.372Z,16.20
2023-05-22T04:00:09.619Z,16.20
2023-05-22T04:02:38.729Z,16.10
2023-05-22T04:05:09.247Z,16.10
2023-05-22T04:07:37.435Z,16.10
2023-05-22T04:10:05.701Z,16.10
2023-05-22T04:12:33.553Z,16.00
2023-05-22T04:15:02.782Z,16.10
2023-05-22T04:17:33.574Z,16.00
2023-05-22T04:20:01.838Z,16.00
2023-05-22T04:22:31.334Z,16.00
2023-05-22T04:24:59.241Z,16.00
2023-05-22T04:27:29.766Z,16.00
2023-05-22T04:29:59.942Z,16.00
2023-05-22T04:32:29.679Z,16.00
2023-05-22T04:35:00.496Z,16.00
2023-05-22T04:37:31.592Z,16.00
2023-05-22T04:40:05.762Z,16.00
2023-05-22T04:42:34.515Z,15.90
2023-05-22T04:45:02.487Z,15.90
2023-05-22T04:47:32.555Z,15.90
2023-05-22T04:50:02.454Z,15.90
2023-05-22T04:52:30.362Z,16.00
2023-05-22T04:55:00.012Z,16.00
2023-05-22T04:57:29.669Z,15.90
2023-05-22T04:59:58.136Z,15.90
2023-05-22T05:02:25.970Z,15.90
2023-05-22T05:04:55.387Z,15.90
2023-05-22T05:07:23.676Z,15.90
2023-05-22T05:09:51.546Z,15.90
2023-05-22T05:12:19.407Z,16.00
2023-05-22T05:14:48.410Z,16.00
2023-05-22T05:17:16.284Z,16.00
2023-05-22T05:19:44.156Z,16.00
2023-05-22T05:22:13.337Z,16.00
2023-05-22T05:24:41.207Z,16.00
2023-05-22T05:27:09.103Z,16.00
2023-05-22T05:29:37.006Z,16.00
2023-05-22T05:32:05.540Z,16.00
2023-05-22T05:34:33.449Z,16.00
2023-05-22T05:37:02.860Z,16.10
2023-05-22T05:39:32.183Z,16.10
2023-05-22T05:42:00.573Z,16.10
2023-05-22T05:44:28.556Z,16.20
2023-05-22T05:46:57.028Z,16.20
2023-05-22T05:49:24.891Z,16.20
2023-05-22T05:51:52.816Z,16.30
2023-05-22T05:54:21.109Z,16.30
2023-05-22T05:56:50.324Z,16.30
2023-05-22T05:59:18.213Z,16.40
2023-05-22T06:01:47.171Z,16.40
2023-05-22T06:04:15.157Z,16.40
2023-05-22T06:06:44.233Z,16.40
2023-05-22T06:09:12.401Z,16.50
2023-05-22T06:11:40.340Z,16.50
2023-05-22T06:14:10.159Z,16.60
2023-05-22T06:16:38.053Z,16.50
2023-05-22T06:19:06.078Z,16.60
2023-05-22T06:21:33.941Z,16.60
2023-05-22T06:24:01.847Z,16.70
2023-05-22T06:26:29.732Z,16.70
2023-05-22T06:28:57.589Z,16.70
2023-05-22T06:31:28.018Z,16.70
2023-05-22T06:33:56.059Z,16.80
2023-05-22T06:36:24.043Z,16.80
2023-05-22T06:38:51.975Z,16.90
2023-05-22T06:41:19.845Z,16.90
2023-05-22T06:43:47.692Z,16.90
2023-05-22T06:46:15.600Z,17.00
2023-05-22T06:48:44.855Z,17.00
2023-05-22T06:51:14.941Z,17.10
2023-05-22T06:53:42.865Z,17.10
2023-05-22T06:56:10.781Z,17.20
2023-05-22T06:58:38.632Z,17.20
2023-05-22T07:01:07.747Z,17.30
2023-05-22T07:03:35.831Z,17.30
2023-05-22T07:06:06.204Z,17.40
2023-05-22T07:08:35.212Z,17.40
2023-05-22T07:11:06.760Z,17.50
2023-05-22T07:13:34.617Z,17.50
2023-05-22T07:16:02.541Z,17.60
2023-05-22T07:18:31.349Z,17.60
2023-05-22T07:20:59.946Z,17.70
2023-05-22T07:23:29.133Z,17.70
2023-05-22T07:25:57.042Z,17.80
2023-05-22T07:28:24.914Z,17.90
2023-05-22T07:30:52.760Z,17.90
2023-05-22T07:33:20.695Z,18.00
2023-05-22T07:35:48.557Z,18.10
2023-05-22T07:38:16.431Z,18.10
2023-05-22T07:40:45.707Z,18.10
2023-05-22T07:43:15.295Z,18.20
2023-05-22T07:45:44.174Z,18.30
2023-05-22T07:48:12.221Z,18.40
2023-05-22T07:50:44.670Z,18.50
2023-05-22T07:53:12.695Z,18.50
2023-05-22T07:55:41.013Z,18.60
2023-05-22T07:58:10.803Z,18.60
2023-05-22T08:00:38.704Z,18.70
2023-05-22T08:03:06.809Z,18.80
2023-05-22T08:05:34.867Z,18.90
2023-05-22T08:08:03.763Z,18.90
2023-05-22T08:10:46.679Z,19.00
2023-05-22T08:13:20.958Z,19.10
2023-05-22T08:15:48.827Z,19.20
2023-05-22T08:18:16.726Z,19.20
2023-05-22T08:20:44.611Z,19.40
2023-05-22T08:23:12.559Z,19.40
2023-05-22T08:25:41.171Z,19.50
2023-05-22T08:28:09.302Z,19.50
2023-05-22T08:30:38.801Z,19.60
2023-05-22T08:33:06.861Z,19.70
2023-05-22T08:35:34.862Z,19.80
2023-05-22T08:38:02.774Z,19.90
2023-05-22T08:40:36.888Z,20.00
2023-05-22T08:43:06.180Z,20.10
2023-05-22T08:45:34.874Z,20.20
2023-05-22T08:48:06.958Z,20.20
2023-05-22T08:50:36.847Z,20.30
2023-05-22T08:53:06.712Z,20.40
2023-05-22T08:55:35.179Z,20.50
2023-05-22T08:58:03.647Z,20.60
2023-05-22T09:00:31.892Z,20.70
2023-05-22T09:03:00.703Z,20.80
2023-05-22T09:05:30.490Z,20.90
2023-05-22T09:08:08.477Z,20.90
2023-05-22T09:10:44.580Z,21.00
2023-05-22T09:13:24.074Z,21.10
2023-05-22T09:15:52.019Z,21.10
2023-05-22T09:18:22.164Z,21.20
2023-05-22T09:20:51.844Z,21.30
2023-05-22T09:23:19.915Z,21.30
2023-05-22T09:25:47.896Z,21.40
2023-05-22T09:28:15.816Z,21.40
2023-05-22T09:30:43.864Z,21.50
2023-05-22T09:33:14.144Z,21.60
2023-05-22T09:35:43.890Z,21.70
2023-05-22T09:38:13.618Z,21.70
2023-05-22T09:40:42.049Z,21.80
2023-05-22T09:43:18.415Z,21.80
2023-05-22T09:45:46.358Z,21.90
2023-05-22T09:48:18.106Z,21.90
2023-05-22T09:50:48.644Z,21.80
2023-05-22T09:53:20.398Z,21.90
2023-05-22T09:55:49.425Z,21.90
2023-05-22T09:58:20.676Z,22.00
2023-05-22T10:00:51.024Z,22.10
2023-05-22T10:03:24.374Z,22.10
2023-05-22T10:05:55.656Z,22.10
2023-05-22T10:08:28.629Z,22.20
2023-05-22T10:10:57.832Z,22.30
2023-05-22T10:13:27.483Z,22.40
2023-05-22T10:15:56.012Z,22.60
2023-05-22T10:18:25.782Z,22.70
2023-05-22T10:20:54.324Z,22.80
2023-05-22T10:23:22.973Z,22.80
2023-05-22T10:25:54.008Z,22.80
2023-05-22T10:28:28.502Z,22.90
2023-05-22T10:31:01.262Z,22.90
2023-05-22T10:33:34.897Z,22.90
2023-05-22T10:36:06.457Z,22.90
2023-05-22T10:39:05.108Z,23.00
2023-05-22T10:41:35.668Z,23.00
2023-05-22T10:44:04.023Z,23.00
2023-05-22T10:46:34.507Z,23.10
2023-05-22T10:49:02.576Z,23.20
2023-05-22T10:51:30.867Z,23.20
2023-05-22T10:54:02.207Z,23.30
2023-05-22T10:56:36.152Z,23.40
2023-05-22T10:59:07.284Z,23.50
2023-05-22T11:01:37.838Z,23.40
2023-05-22T11:04:12.723Z,23.50
2023-05-22T11:06:42.355Z,23.60
2023-05-22T11:09:21.660Z,23.70
2023-05-22T11:12:20.640Z,23.80
2023-05-22T11:14:52.940Z,23.80
2023-05-22T11:17:25.962Z,23.90
2023-05-22T11:20:05.941Z,23.80
2023-05-22T11:22:36.620Z,23.90
2023-05-22T11:25:07.747Z,23.90
2023-05-22T11:27:39.047Z,23.90
2023-05-22T11:30:09.311Z,24.00
2023-05-22T11:32:37.869Z,24.10
2023-05-22T11:35:08.323Z,24.20
2023-05-22T11:37:39.600Z,24.20
2023-05-22T11:40:08.794Z,24.30
2023-05-22T11:42:39.004Z,24.40
2023-05-22T11:45:08.438Z,24.50
2023-05-22T11:47:36.375Z,24.60
2023-05-22T11:50:06.672Z,24.60
2023-05-22T11:52:35.629Z,24.60
2023-05-22T11:55:06.442Z,24.70
2023-05-22T11:57:34.784Z,24.80
2023-05-22T12:00:06.430Z,24.80
2023-05-22T12:02:34.612Z,25.00
2023-05-22T12:05:02.634Z,25.20
2023-05-22T12:07:30.890Z,25.20
2023-05-22T12:10:00.120Z,25.20
2023-05-22T12:12:28.053Z,25.20
2023-05-22T12:14:55.984Z,25.20
2023-05-22T12:17:25.301Z,25.30
2023-05-22T12:19:54.666Z,25.30
2023-05-22T12:22:23.423Z,25.40
2023-05-22T12:24:53.527Z,25.50
2023-05-22T12:27:21.417Z,25.60
2023-05-22T12:29:49.299Z,25.80
2023-05-22T12:32:18.386Z,25.90
2023-05-22T12:34:50.263Z,26.10
2023-05-22T12:37:20.163Z,26.20
2023-05-22T12:39:57.861Z,26.10
2023-05-22T12:42:26.321Z,26.30
2023-05-22T12:44:54.961Z,26.30
2023-05-22T12:47:24.205Z,26.40
2023-05-22T12:49:53.481Z,26.50
2023-05-22T12:52:21.535Z,26.70
2023-05-22T12:54:49.490Z,26.90
2023-05-22T12:57:17.613Z,27.00
2023-05-22T12:59:45.517Z,27.20
2023-05-22T13:02:13.422Z,27.20
2023-05-22T13:04:41.362Z,27.30
2023-05-22T13:07:10.624Z,27.40
2023-05-22T13:09:38.533Z,27.40
2023-05-22T13:12:07.207Z,27.40
2023-05-22T13:14:35.124Z,27.50
2023-05-22T13:17:03.018Z,27.50
2023-05-22T13:19:31.032Z,27.40
2023-05-22T13:21:59.032Z,27.50
2023-05-22T13:24:28.281Z,27.60
2023-05-22T13:26:56.170Z,27.80
2023-05-22T13:29:24.110Z,27.90
2023-05-22T13:31:52.110Z,28.00
2023-05-22T13:34:20.117Z,27.90
2023-05-22T13:36:48.299Z,27.90
2023-05-22T13:39:16.214Z,27.90
2023-05-22T13:41:46.441Z,27.90
2023-05-22T13:44:14.650Z,27.90
2023-05-22T13:46:42.583Z,27.90
2023-05-22T13:49:10.681Z,27.90
2023-05-22T13:51:38.912Z,27.90
2023-05-22T13:54:06.918Z,27.80
2023-05-22T13:56:34.804Z,27.70
2023-05-22T13:59:06.475Z,27.80
2023-05-22T14:01:35.700Z,27.80
2023-05-22T14:04:04.575Z,28.00
2023-05-22T14:06:32.480Z,28.20
2023-05-22T14:09:00.771Z,28.30
2023-05-22T14:11:28.849Z,28.30
2023-05-22T14:13:56.725Z,28.50
2023-05-22T14:16:26.007Z,28.60
2023-05-22T14:18:54.014Z,28.60
2023-05-22T14:21:21.927Z,28.60
2023-05-22T14:23:49.816Z,28.60
2023-05-22T14:26:17.642Z,28.70
2023-05-22T14:28:45.674Z,28.70
2023-05-22T14:31:13.599Z,28.70
2023-05-22T14:33:43.023Z,28.60
2023-05-22T14:36:10.940Z,28.70
2023-05-22T14:38:38.825Z,28.70
2023-05-22T14:41:06.745Z,28.80
2023-05-22T14:43:37.023Z,28.80
2023-05-22T14:46:05.068Z,28.80
2023-05-22T14:48:32.966Z,28.90
2023-05-22T14:51:02.224Z,29.00
2023-05-22T14:53:30.105Z,29.00
2023-05-22T14:55:57.928Z,29.00
2023-05-22T14:58:25.813Z,29.00
2023-05-22T15:00:53.629Z,29.00
2023-05-22T15:03:21.526Z,28.90
2023-05-22T15:05:49.532Z,28.90
2023-05-22T15:08:20.392Z,28.90
2023-05-22T15:10:48.375Z,28.90
2023-05-22T15:13:16.393Z,28.90
2023-05-22T15:15:44.305Z,28.80
2023-05-22T15:18:13.066Z,28.70
2023-05-22T15:20:41.328Z,28.50
2023-05-22T15:23:09.342Z,28.40
2023-05-22T15:25:38.753Z,28.20
2023-05-22T15:28:07.742Z,28.00
2023-05-22T15:30:36.494Z,27.60
2023-05-22T15:33:04.857Z,27.40
2023-05-22T15:35:33.320Z,27.30
2023-05-22T15:38:03.055Z,27.20
2023-05-22T15:40:31.420Z,27.10
2023-05-22T15:43:03.906Z,27.00
2023-05-22T15:45:32.056Z,27.00
2023-05-22T15:48:00.442Z,26.80
2023-05-22T15:50:28.811Z,26.70
2023-05-22T15:52:56.784Z,26.50
2023-05-22T15:55:24.883Z,26.50
2023-05-22T15:57:52.917Z,26.40
2023-05-22T16:00:23.041Z,26.40
2023-05-22T16:02:51.214Z,26.40
2023-05-22T16:05:19.394Z,26.30
2023-05-22T16:07:47.332Z,26.10
2023-05-22T16:10:15.206Z,26.00
2023-05-22T16:12:43.137Z,25.90
2023-05-22T16:15:11.902Z,25.90
2023-05-22T16:17:41.162Z,25.90
2023-05-22T16:20:10.203Z,25.80
2023-05-22T16:22:48.228Z,25.80
2023-05-22T16:25:17.557Z,25.80
2023-05-22T16:27:45.582Z,25.80
2023-05-22T16:30:16.460Z,25.80
2023-05-22T16:32:46.858Z,25.90
2023-05-22T16:35:15.545Z,25.90
2023-05-22T16:37:43.509Z,25.80
2023-05-22T16:40:12.244Z,25.80
2023-05-22T16:42:40.180Z,25.80
2023-05-22T16:45:09.035Z,25.70
2023-05-22T16:47:37.102Z,25.80
2023-05-22T16:50:08.016Z,25.70
2023-05-22T16:52:36.629Z,25.70
2023-05-22T16:55:04.815Z,25.60
2023-05-22T16:57:32.701Z,25.60
2023-05-22T17:00:00.722Z,25.60
2023-05-22T17:02:29.025Z,25.60
2023-05-22T17:04:56.981Z,25.50
2023-05-22T17:07:26.507Z,25.40
2023-05-22T17:09:54.451Z,25.40
2023-05-22T17:12:22.522Z,25.30
2023-05-22T17:14:50.451Z,25.20
2023-05-22T17:17:18.327Z,25.20
2023-05-22T17:19:46.317Z,25.20
2023-05-22T17:22:14.239Z,25.10
2023-05-22T17:24:43.547Z,25.00
2023-05-22T17:27:11.706Z,25.00
2023-05-22T17:29:40.760Z,25.00
2023-05-22T17:32:08.822Z,24.90
2023-05-22T17:34:36.829Z,24.90
2023-05-22T17:37:04.771Z,24.90
2023-05-22T17:39:32.655Z,24.90
2023-05-22T17:42:01.862Z,24.90
2023-05-22T17:44:30.758Z,24.90
2023-05-22T17:46:58.682Z,24.90
2023-05-22T17:49:26.532Z,24.80
2023-05-22T17:51:54.390Z,24.80
2023-05-22T17:54:22.311Z,24.80
2023-05-22T17:56:50.205Z,24.80
2023-05-22T17:59:19.424Z,24.80
2023-05-22T18:01:47.749Z,24.80
2023-05-22T18:04:15.644Z,24.70
2023-05-22T18:06:43.522Z,24.70
2023-05-22T18:09:11.360Z,24.70
2023-05-22T18:11:39.280Z,24.70
2023-05-22T18:14:07.204Z,24.70
2023-05-22T18:16:36.492Z,24.60
2023-05-22T18:19:04.612Z,24.60
2023-05-22T18:21:32.529Z,24.60
2023-05-22T18:24:00.459Z,24.50
2023-05-22T18:26:28.462Z,24.50
2023-05-22T18:28:56.359Z,24.40
2023-05-22T18:31:24.235Z,24.40
2023-05-22T18:33:53.488Z,24.40
2023-05-22T18:36:21.631Z,24.40
2023-05-22T18:38:49.531Z,24.30
2023-05-22T18:41:17.546Z,24.30
2023-05-22T18:43:45.440Z,24.20
2023-05-22T18:46:13.459Z,24.20
2023-05-22T18:48:41.413Z,24.10
2023-05-22T18:51:10.644Z,24.00
2023-05-22T18:53:38.533Z,24.00
2023-05-22T18:56:06.601Z,24.00
2023-05-22T18:58:34.463Z,24.00
2023-05-22T19:01:02.701Z,23.90
2023-05-22T19:03:30.749Z,23.80
2023-05-22T19:05:58.740Z,23.80
2023-05-22T19:08:27.959Z,23.80
2023-05-22T19:10:59.863Z,23.80
2023-05-22T19:13:29.088Z,23.70
2023-05-22T19:15:57.209Z,23.70
2023-05-22T19:18:25.121Z,23.60
2023-05-22T19:20:52.969Z,23.50
2023-05-22T19:23:20.986Z,23.50
2023-05-22T19:25:50.812Z,23.50
2023-05-22T19:28:18.673Z,23.40
2023-05-22T19:30:46.759Z,23.40
2023-05-22T19:33:16.318Z,23.30
2023-05-22T19:35:44.544Z,23.20
2023-05-22T19:38:12.409Z,23.20
2023-05-22T19:40:40.436Z,23.10
2023-05-22T19:43:09.973Z,23.10
2023-05-22T19:45:37.834Z,23.00
2023-05-22T19:48:05.811Z,23.00
2023-05-22T19:50:35.362Z,23.00
2023-05-22T19:53:03.290Z,22.90
2023-05-22T19:55:31.812Z,22.90
2023-05-22T19:57:59.701Z,22.80
2023-05-22T20:00:31.278Z,22.80
2023-05-22T20:02:59.296Z,22.80
2023-05-22T20:05:27.302Z,22.80
2023-05-22T20:07:55.577Z,22.80
2023-05-22T20:10:23.902Z,22.80
2023-05-22T20:12:54.877Z,22.80
2023-05-22T20:15:24.815Z,22.70
2023-05-22T20:17:54.900Z,22.70
2023-05-22T20:20:24.105Z,22.60
2023-05-22T20:22:52.757Z,22.60
2023-05-22T20:25:21.209Z,22.60
2023-05-22T20:27:49.229Z,22.60
2023-05-22T20:30:17.418Z,22.50
2023-05-22T20:32:46.630Z,22.50
2023-05-22T20:35:18.399Z,22.50
2023-05-22T20:37:46.707Z,22.40
2023-05-22T20:40:15.982Z,22.40
2023-05-22T20:42:44.575Z,22.40
2023-05-22T20:45:14.835Z,22.30
2023-05-22T20:47:44.135Z,22.20
2023-05-22T20:50:12.615Z,22.20
2023-05-22T20:52:41.814Z,22.20
2023-05-22T20:55:10.570Z,22.10
2023-05-22T20:57:38.649Z,22.10
2023-05-22T21:00:11.028Z,22.10
2023-05-22T21:02:39.782Z,22.00
2023-05-22T21:05:08.212Z,22.00
2023-05-22T21:07:36.151Z,22.00
2023-05-22T21:10:05.919Z,21.90
2023-05-22T21:12:33.831Z,21.90
2023-05-22T21:15:01.670Z,21.80
2023-05-22T21:17:29.573Z,21.80
2023-05-22T21:19:57.438Z,21.80
2023-05-22T21:22:25.402Z,21.70
2023-05-22T21:24:53.244Z,21.60
2023-05-22T21:27:22.430Z,21.70
2023-05-22T21:29:50.283Z,21.60
2023-05-22T21:32:18.183Z,21.60
2023-05-22T21:34:46.703Z,21.60
2023-05-22T21:37:14.724Z,21.60
2023-05-22T21:39:42.690Z,21.50
2023-05-22T21:42:10.665Z,21.50
2023-05-22T21:44:40.174Z,21.40
2023-05-22T21:47:08.075Z,21.40
2023-05-22T21:49:38.753Z,21.30
2023-05-22T21:52:07.468Z,21.20
2023-05-22T21:54:35.446Z,21.20
2023-05-22T21:57:03.401Z,21.20
2023-05-22T21:59:31.526Z,21.20
2023-05-22T22:02:00.955Z,21.10
2023-05-22T22:04:28.851Z,21.10
2023-05-22T22:06:56.692Z,21.00
2023-05-22T22:09:24.577Z,21.00
2023-05-22T22:11:52.541Z,21.00
2023-05-22T22:14:20.719Z,21.00
2023-05-22T22:16:50.467Z,20.90
2023-05-22T22:19:19.805Z,20.90
2023-05-22T22:21:47.825Z,20.80
2023-05-22T22:24:15.885Z,20.80
2023-05-22T22:26:44.216Z,20.90
2023-05-22T22:29:12.154Z,20.80
2023-05-22T22:31:40.212Z,20.80
2023-05-22T22:34:08.174Z,20.70
2023-05-22T22:36:37.540Z,20.70
2023-05-22T22:39:05.955Z,20.70
2023-05-22T22:41:33.772Z,20.70
2023-05-22T22:44:01.654Z,20.70
2023-05-22T22:46:29.576Z,20.60
2023-05-22T22:48:58.809Z,20.60
2023-05-22T22:51:26.667Z,20.50
2023-05-22T22:53:55.903Z,20.50
2023-05-22T22:56:24.626Z,20.50
2023-05-22T22:58:52.495Z,20.50
2023-05-22T23:01:20.403Z,20.40
2023-05-22T23:03:48.272Z,20.40
2023-05-22T23:06:17.131Z,20.40
2023-05-22T23:08:45.179Z,20.30
2023-05-22T23:11:14.405Z,20.30
2023-05-22T23:13:43.497Z,20.30
2023-05-22T23:16:11.497Z,20.30
2023-05-22T23:18:39.419Z,20.30
2023-05-22T23:21:07.566Z,20.20
2023-05-22T23:23:35.469Z,20.20
2023-05-22T23:26:03.384Z,20.20
2023-05-22T23:28:32.531Z,20.20
2023-05-22T23:31:00.378Z,20.20
2023-05-22T23:33:28.285Z,20.10
2023-05-22T23:35:56.182Z,20.10
2023-05-22T23:38:24.031Z,20.10
2023-05-22T23:40:51.839Z,20.10
2023-05-22T23:43:20.802Z,20.10
2023-05-22T23:45:50.186Z,20.00
2023-05-22T23:48:18.081Z,20.00
2023-05-22T23:50:45.970Z,20.00
2023-05-22T23:53:13.810Z,19.90
2023-05-22T23:55:41.851Z,19.90
2023-05-22T23:58:10.065Z,19.90
